Time;durP1;ratioP1;P1;durP2;ratioP2;P2;SDS_P1;SDS_P2;PMS_P1;PMS_P2;Temp;Humidity;BMP_temperature;BMP_pressure;BME280_temperature;BME280_humidity;BME280_pressure;Samples;Min_cycle;Max_cycle;Signal;HPM_P1;HPM_P2
2021/10/08 00:00:10;;;;;;;656.45;63.25;;;5.90;99.90;;;;;;5100192;28;20041;-65
2021/10/08 00:02:36;;;;;;;511.20;54.47;;;5.90;99.90;;;;;;5103100;28;20161;-66
2021/10/08 00:05:02;;;;;;;442.85;49.80;;;6.00;99.90;;;;;;5079759;28;20076;-66
2021/10/08 00:07:28;;;;;;;557.58;58.42;;;6.00;99.90;;;;;;5104323;28;20070;-65
2021/10/08 00:09:53;;;;;;;562.13;56.83;;;6.00;99.90;;;;;;5097253;28;20539;-65
2021/10/08 00:12:19;;;;;;;489.23;57.03;;;6.00;99.90;;;;;;5086324;28;20044;-65
2021/10/08 00:14:45;;;;;;;406.33;49.00;;;6.00;99.90;;;;;;5096714;28;20044;-66
2021/10/08 00:17:11;;;;;;;429.17;46.38;;;6.10;99.90;;;;;;5084906;28;20044;-65
2021/10/08 00:19:37;;;;;;;531.22;59.40;;;6.10;99.90;;;;;;5091642;28;20093;-65
2021/10/08 00:22:03;;;;;;;579.92;62.97;;;6.10;99.90;;;;;;5098601;28;20510;-65
2021/10/08 00:24:29;;;;;;;587.80;63.42;;;6.10;99.90;;;;;;5105014;28;20044;-65
2021/10/08 00:26:54;;;;;;;556.15;62.40;;;6.10;99.90;;;;;;5101700;28;20048;-65
2021/10/08 00:29:20;;;;;;;498.90;56.30;;;6.10;99.90;;;;;;5105481;28;20126;-65
2021/10/08 00:31:46;;;;;;;444.77;50.75;;;6.20;99.90;;;;;;5098317;28;20067;-66
2021/10/08 00:34:11;;;;;;;442.27;50.80;;;6.10;99.90;;;;;;5083747;28;20114;-65
2021/10/08 00:36:37;;;;;;;446.55;55.08;;;6.10;99.90;;;;;;5095700;28;20043;-65
2021/10/08 00:39:04;;;;;;;582.10;55.05;;;6.10;99.90;;;;;;5105458;28;20036;-65
2021/10/08 00:41:30;;;;;;;455.20;48.17;;;6.20;99.90;;;;;;5097112;28;20052;-65
2021/10/08 00:43:56;;;;;;;407.63;47.03;;;6.20;99.90;;;;;;5104776;28;20055;-65
2021/10/08 00:46:22;;;;;;;426.55;46.88;;;6.20;99.90;;;;;;5077965;28;20143;-65
2021/10/08 00:48:53;;;;;;;409.33;49.25;;;6.20;99.90;;;;;;5104679;28;20040;-65
2021/10/08 00:51:21;;;;;;;573.88;54.33;;;6.20;99.90;;;;;;5080053;28;20056;-65
2021/10/08 00:53:47;;;;;;;580.08;57.17;;;6.20;99.90;;;;;;5103071;28;20044;-65
2021/10/08 00:56:15;;;;;;;334.52;42.55;;;6.20;99.90;;;;;;5099275;28;20051;-65
2021/10/08 00:58:42;;;;;;;352.75;40.08;;;6.20;99.90;;;;;;5089204;28;20068;-65
2021/10/08 01:01:08;;;;;;;323.02;40.78;;;6.20;99.90;;;;;;5100939;28;20041;-65
2021/10/08 01:03:36;;;;;;;362.70;42.45;;;6.20;99.90;;;;;;5099836;28;20400;-65
2021/10/08 01:06:02;;;;;;;322.25;41.75;;;6.10;99.90;;;;;;5101963;28;20036;-65
2021/10/08 01:08:27;;;;;;;148.20;30.00;;;6.00;99.90;;;;;;5097134;28;20111;-65
2021/10/08 01:10:53;;;;;;;352.90;40.47;;;6.00;99.90;;;;;;5103806;28;20073;-65
2021/10/08 01:13:19;;;;;;;288.55;35.88;;;5.90;99.90;;;;;;5097052;28;20048;-65
2021/10/08 01:15:45;;;;;;;336.48;40.83;;;5.80;99.90;;;;;;5104213;28;20418;-65
2021/10/08 01:18:11;;;;;;;311.35;36.75;;;5.80;99.90;;;;;;5095791;28;20040;-65
2021/10/08 01:20:37;;;;;;;509.80;47.53;;;5.80;99.90;;;;;;5098465;28;20105;-65
2021/10/08 01:23:03;;;;;;;449.38;46.50;;;5.80;99.90;;;;;;5091539;28;20591;-65
2021/10/08 01:25:31;;;;;;;537.47;50.67;;;5.80;99.90;;;;;;5097796;28;20055;-65
2021/10/08 01:27:58;;;;;;;470.90;47.33;;;5.80;99.90;;;;;;5091102;28;20041;-65
2021/10/08 01:30:24;;;;;;;530.33;51.05;;;5.80;99.90;;;;;;5098584;28;20046;-65
2021/10/08 01:32:50;;;;;;;787.97;59.78;;;5.80;99.90;;;;;;5102010;28;20047;-66
2021/10/08 01:35:17;;;;;;;819.47;61.17;;;5.80;99.90;;;;;;5097994;28;20052;-65
2021/10/08 01:37:43;;;;;;;603.42;49.35;;;5.70;99.90;;;;;;5081996;28;20040;-65
2021/10/08 01:40:10;;;;;;;697.10;59.72;;;5.70;99.90;;;;;;5084530;28;20052;-66
2021/10/08 01:42:36;;;;;;;486.83;48.28;;;5.70;99.90;;;;;;5083101;28;20192;-65
2021/10/08 01:45:03;;;;;;;440.65;45.30;;;5.80;99.90;;;;;;5085812;28;20285;-65
2021/10/08 01:47:29;;;;;;;317.50;39.65;;;5.80;99.90;;;;;;5104209;28;20048;-65
2021/10/08 01:49:55;;;;;;;610.95;55.15;;;5.80;99.90;;;;;;5096814;28;20044;-65
2021/10/08 01:52:21;;;;;;;681.97;54.10;;;5.90;99.90;;;;;;5103711;28;20503;-65
2021/10/08 01:54:47;;;;;;;459.65;47.58;;;5.80;99.90;;;;;;5097150;28;20047;-65
2021/10/08 01:57:13;;;;;;;516.17;54.17;;;5.80;99.90;;;;;;5103485;28;20066;-65
2021/10/08 01:59:39;;;;;;;500.95;49.00;;;5.80;99.90;;;;;;5098962;28;20044;-65
2021/10/08 02:02:05;;;;;;;538.15;49.13;;;5.80;99.90;;;;;;5094621;28;20067;-65
2021/10/08 02:04:30;;;;;;;614.72;57.00;;;5.80;99.90;;;;;;5100860;28;20090;-65
2021/10/08 02:06:56;;;;;;;404.73;43.30;;;5.80;99.90;;;;;;5101350;28;20081;-65
2021/10/08 02:09:22;;;;;;;260.40;36.03;;;5.80;99.90;;;;;;5102196;28;20071;-65
2021/10/08 02:11:48;;;;;;;542.95;53.10;;;5.80;99.90;;;;;;5097311;28;20051;-65
2021/10/08 02:14:14;;;;;;;593.15;52.42;;;5.70;99.90;;;;;;5104203;28;20515;-65
2021/10/08 02:16:40;;;;;;;440.48;48.10;;;5.70;99.90;;;;;;5096404;28;20051;-65
2021/10/08 02:19:06;;;;;;;336.35;39.03;;;5.70;99.90;;;;;;5085131;28;20052;-65
2021/10/08 02:21:34;;;;;;;430.63;46.75;;;5.70;99.90;;;;;;5091401;28;20047;-65
2021/10/08 02:24:00;;;;;;;462.60;47.25;;;5.60;99.90;;;;;;5080970;28;20054;-65
2021/10/08 02:26:26;;;;;;;415.00;46.10;;;5.60;99.90;;;;;;5091201;28;20052;-65
2021/10/08 02:28:52;;;;;;;469.38;45.78;;;5.60;99.90;;;;;;5080212;28;20047;-65
2021/10/08 02:31:18;;;;;;;423.00;45.95;;;5.50;99.90;;;;;;5098918;28;20044;-65
2021/10/08 02:33:46;;;;;;;513.47;48.53;;;5.50;99.90;;;;;;5099070;28;20044;-65
2021/10/08 02:36:12;;;;;;;338.08;40.13;;;5.50;99.90;;;;;;5102057;28;20101;-65
2021/10/08 02:38:38;;;;;;;472.45;46.92;;;5.60;99.90;;;;;;5102097;28;20443;-65
2021/10/08 02:41:05;;;;;;;444.77;46.90;;;5.50;99.90;;;;;;5094258;28;20041;-65
2021/10/08 02:43:31;;;;;;;436.80;44.58;;;5.50;99.90;;;;;;5101836;28;20048;-66
2021/10/08 02:45:57;;;;;;;344.63;39.97;;;5.50;99.90;;;;;;5094532;28;20062;-65
2021/10/08 02:48:23;;;;;;;460.33;45.88;;;5.50;99.90;;;;;;5101252;28;20097;-65
2021/10/08 02:50:49;;;;;;;243.13;35.15;;;5.50;99.90;;;;;;5077138;28;20048;-65
2021/10/08 02:53:15;;;;;;;423.05;47.80;;;5.50;99.90;;;;;;5099324;28;20096;-65
2021/10/08 02:55:41;;;;;;;418.15;43.92;;;5.50;99.90;;;;;;5078401;28;20051;-65
2021/10/08 02:58:07;;;;;;;312.88;39.45;;;5.40;99.90;;;;;;5097468;28;20052;-65
2021/10/08 03:00:34;;;;;;;365.73;42.47;;;5.50;99.90;;;;;;5099145;28;20036;-65
2021/10/08 03:03:00;;;;;;;335.85;40.25;;;5.50;99.90;;;;;;5095219;28;20036;-65
2021/10/08 03:05:26;;;;;;;348.35;41.63;;;5.60;99.90;;;;;;5101145;28;20051;-65
2021/10/08 03:07:52;;;;;;;412.45;41.58;;;5.60;99.90;;;;;;5075877;28;20048;-65
2021/10/08 03:10:19;;;;;;;442.42;43.78;;;5.70;99.90;;;;;;5100525;28;20104;-65
2021/10/08 03:12:46;;;;;;;459.80;46.13;;;5.70;99.90;;;;;;5093561;28;20059;-65
2021/10/08 03:15:11;;;;;;;433.10;46.37;;;5.80;99.90;;;;;;5103518;28;20048;-65
2021/10/08 03:17:37;;;;;;;550.78;52.97;;;5.70;99.90;;;;;;5093418;28;20377;-65
2021/10/08 03:20:05;;;;;;;402.02;42.45;;;5.70;99.90;;;;;;5102981;28;20048;-65
2021/10/08 03:22:31;;;;;;;388.13;40.92;;;5.70;99.90;;;;;;5095690;28;20103;-65
2021/10/08 03:24:56;;;;;;;517.42;50.08;;;5.80;99.90;;;;;;5100805;28;20118;-65
2021/10/08 03:27:22;;;;;;;396.35;40.85;;;5.80;99.90;;;;;;5106272;28;20044;-65
2021/10/08 03:29:48;;;;;;;328.20;36.78;;;5.80;99.90;;;;;;5102507;28;20055;-66
2021/10/08 03:32:14;;;;;;;251.98;34.83;;;5.80;99.90;;;;;;5087643;28;20496;-65
2021/10/08 03:34:39;;;;;;;370.92;40.47;;;5.80;99.90;;;;;;5102480;28;20040;-65
2021/10/08 03:37:09;;;;;;;373.90;41.25;;;5.80;99.90;;;;;;5077086;28;20048;-65
2021/10/08 03:39:38;;;;;;;344.90;40.80;;;5.80;99.90;;;;;;5093129;28;20048;-65
2021/10/08 03:42:05;;;;;;;342.35;39.67;;;5.80;99.90;;;;;;5095248;28;20060;-65
2021/10/08 03:44:38;;;;;;;304.15;37.60;;;5.90;99.90;;;;;;5099931;28;20048;-66
2021/10/08 03:47:13;;;;;;;432.10;44.88;;;5.90;99.90;;;;;;5095953;28;20103;-65
2021/10/08 03:49:39;;;;;;;325.50;38.30;;;5.90;99.90;;;;;;5100012;28;20044;-65
2021/10/08 03:52:05;;;;;;;433.73;40.90;;;5.90;99.90;;;;;;5095994;28;20398;-65
2021/10/08 03:54:31;;;;;;;386.02;38.78;;;5.80;99.90;;;;;;5084119;28;20054;-65
2021/10/08 03:56:56;;;;;;;591.83;46.00;;;5.80;99.90;;;;;;5084518;28;20334;-65
2021/10/08 03:59:22;;;;;;;384.17;38.33;;;5.80;99.90;;;;;;5094453;28;20094;-66
2021/10/08 04:01:48;;;;;;;512.80;47.28;;;5.80;99.90;;;;;;5087021;28;20076;-65
2021/10/08 04:04:14;;;;;;;391.95;39.78;;;5.80;99.90;;;;;;5100392;28;20043;-65
2021/10/08 04:06:40;;;;;;;418.98;43.30;;;5.70;99.90;;;;;;5100676;28;20051;-65
2021/10/08 04:09:07;;;;;;;607.35;52.33;;;5.70;99.90;;;;;;5093826;28;20045;-66
2021/10/08 04:11:34;;;;;;;625.15;53.50;;;5.70;99.90;;;;;;5100236;28;20044;-66
2021/10/08 04:14:00;;;;;;;387.48;39.28;;;5.60;99.90;;;;;;5093355;28;20083;-66
2021/10/08 04:16:25;;;;;;;622.10;54.53;;;5.70;99.90;;;;;;5100086;28;20072;-65
2021/10/08 04:18:51;;;;;;;550.88;49.65;;;5.70;99.90;;;;;;5092993;28;20040;-65
2021/10/08 04:21:17;;;;;;;571.75;52.47;;;5.60;99.90;;;;;;5099438;28;20090;-65
2021/10/08 04:23:43;;;;;;;487.67;44.85;;;5.60;99.90;;;;;;5092456;28;20028;-65
2021/10/08 04:26:09;;;;;;;527.55;49.60;;;5.60;99.90;;;;;;5099478;28;20063;-66
2021/10/08 04:28:35;;;;;;;558.15;53.85;;;5.60;99.90;;;;;;5074460;28;20044;-65
2021/10/08 04:31:02;;;;;;;591.72;55.13;;;5.60;99.90;;;;;;5097115;28;20044;-65
2021/10/08 04:33:28;;;;;;;616.00;56.80;;;5.50;99.90;;;;;;5102148;28;20206;-66
2021/10/08 04:35:56;;;;;;;465.38;47.50;;;5.50;99.90;;;;;;5099021;28;20191;-66
2021/10/08 04:38:22;;;;;;;;;;;5.60;99.90;;;;;;5102841;28;20124;-65
2021/10/08 04:40:48;;;;;;;490.00;50.70;;;5.50;99.90;;;;;;5095122;28;19932;-65
2021/10/08 04:43:14;;;;;;;401.00;44.78;;;5.50;99.90;;;;;;5102297;28;20040;-65
2021/10/08 04:45:39;;;;;;;662.53;55.92;;;5.50;99.90;;;;;;5094682;28;20574;-65
2021/10/08 04:48:05;;;;;;;470.02;48.22;;;5.50;99.90;;;;;;5094670;28;20047;-65
2021/10/08 04:50:31;;;;;;;512.78;47.85;;;5.50;99.90;;;;;;5096235;28;20049;-66
2021/10/08 04:52:57;;;;;;;477.77;47.10;;;5.50;99.90;;;;;;5099824;28;20051;-65
2021/10/08 04:55:23;;;;;;;435.35;46.33;;;5.50;99.90;;;;;;5097317;28;20523;-65
2021/10/08 04:57:49;;;;;;;419.95;43.25;;;5.50;99.90;;;;;;5097585;28;20039;-66
2021/10/08 05:00:15;;;;;;;439.05;45.03;;;5.50;99.90;;;;;;5099827;28;20538;-65
2021/10/08 05:02:41;;;;;;;402.33;43.90;;;5.40;99.90;;;;;;5095127;28;20066;-65
2021/10/08 05:05:07;;;;;;;471.60;50.63;;;5.40;99.90;;;;;;5101805;28;20096;-66
2021/10/08 05:07:32;;;;;;;541.95;51.38;;;5.40;99.90;;;;;;5094603;28;20385;-65
2021/10/08 05:09:59;;;;;;;592.35;58.25;;;5.40;99.90;;;;;;5101339;28;20066;-65
2021/10/08 05:12:27;;;;;;;513.95;51.63;;;5.40;99.90;;;;;;5094767;28;20044;-65
2021/10/08 05:14:53;;;;;;;635.63;59.55;;;5.40;99.90;;;;;;5101551;28;20024;-66
2021/10/08 05:17:19;;;;;;;511.73;52.58;;;5.40;99.90;;;;;;5094268;28;20055;-66
2021/10/08 05:19:45;;;;;;;490.33;51.85;;;5.40;99.90;;;;;;5100485;28;20048;-65
2021/10/08 05:22:11;;;;;;;393.20;46.40;;;5.40;99.90;;;;;;5092974;28;20070;-66
2021/10/08 05:24:37;;;;;;;404.80;51.03;;;5.40;99.90;;;;;;5099808;28;20083;-65
2021/10/08 05:27:03;;;;;;;421.05;47.42;;;5.40;99.90;;;;;;5098377;28;20048;-65
2021/10/08 05:29:29;;;;;;;467.83;49.17;;;5.40;99.90;;;;;;5099517;28;20093;-65
2021/10/08 05:31:54;;;;;;;403.40;47.13;;;5.40;99.90;;;;;;5085474;28;20107;-65
2021/10/08 05:34:20;;;;;;;387.05;46.05;;;5.30;99.90;;;;;;5076647;28;20149;-65
2021/10/08 05:36:49;;;;;;;487.15;51.10;;;5.30;99.90;;;;;;5091698;28;20041;-65
2021/10/08 05:39:16;;;;;;;420.67;47.67;;;5.30;99.90;;;;;;5095322;28;20032;-65
2021/10/08 05:41:42;;;;;;;500.48;55.72;;;5.30;99.90;;;;;;5101334;28;20043;-65
2021/10/08 05:44:08;;;;;;;511.85;51.78;;;5.30;99.90;;;;;;5095167;28;20087;-65
2021/10/08 05:46:34;;;;;;;411.88;51.10;;;5.20;99.90;;;;;;5099696;28;20048;-65
2021/10/08 05:49:00;;;;;;;407.15;46.80;;;5.20;99.90;;;;;;5094998;28;20115;-65
2021/10/08 05:51:26;;;;;;;383.02;46.60;;;5.20;99.90;;;;;;5090349;28;20113;-65
2021/10/08 05:53:52;;;;;;;456.33;51.90;;;5.20;99.90;;;;;;5096751;28;20060;-65
2021/10/08 05:56:17;;;;;;;381.00;46.05;;;5.10;99.90;;;;;;5099185;28;20040;-65
2021/10/08 05:58:43;;;;;;;290.63;40.63;;;5.20;99.90;;;;;;5098266;28;20051;-66
2021/10/08 06:01:09;;;;;;;199.50;35.72;;;5.10;99.90;;;;;;5096701;28;20040;-65
2021/10/08 06:03:35;;;;;;;334.45;45.53;;;5.10;99.90;;;;;;5100519;28;20511;-66
2021/10/08 06:06:01;;;;;;;271.83;40.57;;;5.10;99.90;;;;;;5095082;28;20044;-65
2021/10/08 06:08:27;;;;;;;445.90;52.53;;;5.10;99.90;;;;;;5088308;28;20044;-65
2021/10/08 06:10:52;;;;;;;561.85;59.53;;;5.10;99.90;;;;;;5094390;28;20044;-65
2021/10/08 06:13:18;;;;;;;520.13;58.08;;;5.20;99.90;;;;;;5101595;28;20114;-65
2021/10/08 06:15:44;;;;;;;457.20;52.60;;;5.10;99.90;;;;;;5094325;28;20068;-65
2021/10/08 06:18:09;;;;;;;306.58;44.53;;;5.20;99.90;;;;;;5100320;28;20055;-66
2021/10/08 06:20:35;;;;;;;386.35;50.08;;;5.20;99.90;;;;;;5093476;28;20058;-65
2021/10/08 06:23:01;;;;;;;431.35;53.28;;;5.20;99.90;;;;;;5100329;28;20052;-65
2021/10/08 06:25:27;;;;;;;435.88;55.40;;;5.30;99.90;;;;;;5092690;28;20047;-65
2021/10/08 06:27:53;;;;;;;453.70;57.08;;;5.30;99.90;;;;;;5099486;28;20048;-65
2021/10/08 06:30:20;;;;;;;517.30;64.45;;;5.30;99.90;;;;;;5092554;28;20036;-65
2021/10/08 06:32:46;;;;;;;438.98;58.53;;;5.40;99.90;;;;;;5097302;28;20491;-65
2021/10/08 06:35:12;;;;;;;420.60;59.22;;;5.40;99.90;;;;;;5092926;28;20056;-65
2021/10/08 06:37:37;;;;;;;337.38;51.50;;;5.40;99.90;;;;;;5099240;28;20035;-65
2021/10/08 06:40:04;;;;;;;416.48;58.78;;;5.50;99.90;;;;;;5101815;28;20036;-65
2021/10/08 06:42:29;;;;;;;479.60;63.60;;;5.50;99.90;;;;;;5095203;28;20072;-65
2021/10/08 06:44:57;;;;;;;381.33;59.95;;;5.50;99.90;;;;;;5102125;28;20106;-66
2021/10/08 06:47:24;;;;;;;316.13;51.83;;;5.60;99.90;;;;;;5095463;28;20048;-65
2021/10/08 06:49:50;;;;;;;233.85;47.75;;;5.60;99.90;;;;;;5102249;28;20046;-65
2021/10/08 06:52:16;;;;;;;336.25;54.03;;;5.80;99.90;;;;;;5096471;28;20361;-66
2021/10/08 06:54:43;;;;;;;184.32;46.63;;;5.70;99.90;;;;;;5103700;28;20082;-65
2021/10/08 06:57:08;;;;;;;174.60;46.30;;;5.80;99.90;;;;;;5101648;28;20041;-66
2021/10/08 06:59:34;;;;;;;173.68;47.10;;;5.80;99.90;;;;;;5102528;28;20447;-66
2021/10/08 07:02:00;;;;;;;219.50;51.30;;;5.90;99.90;;;;;;5106014;28;20055;-66
2021/10/08 07:04:26;;;;;;;270.15;54.25;;;5.90;99.90;;;;;;5105153;28;20044;-66
2021/10/08 07:06:51;;;;;;;148.05;43.65;;;5.90;99.90;;;;;;5105288;28;20044;-66
2021/10/08 07:09:17;;;;;;;216.35;50.55;;;6.00;99.90;;;;;;5098641;28;20036;-66
2021/10/08 07:11:43;;;;;;;202.55;52.13;;;6.00;99.90;;;;;;5105808;28;20505;-66
2021/10/08 07:14:09;;;;;;;213.68;57.35;;;6.00;99.90;;;;;;5098523;28;20036;-66
2021/10/08 07:16:35;;;;;;;351.60;63.10;;;6.10;99.90;;;;;;5104702;28;20114;-66
2021/10/08 07:19:15;;;;;;;422.08;67.35;;;6.10;99.90;;;;;;5097557;28;20043;-66
2021/10/08 07:21:42;;;;;;;254.15;56.15;;;6.20;99.90;;;;;;5104464;28;20052;-66
2021/10/08 07:24:11;;;;;;;245.05;55.47;;;6.30;99.90;;;;;;5096991;28;20028;-66
2021/10/08 07:26:38;;;;;;;248.65;57.95;;;6.40;99.90;;;;;;5103749;28;20044;-66
2021/10/08 07:29:04;;;;;;;202.68;53.50;;;6.50;99.90;;;;;;5088063;28;20106;-66
2021/10/08 07:31:30;;;;;;;222.43;52.28;;;6.60;99.90;;;;;;5103327;28;20052;-66
2021/10/08 07:33:56;;;;;;;201.65;51.58;;;6.60;99.90;;;;;;5088734;28;20044;-66
2021/10/08 07:36:22;;;;;;;220.05;55.38;;;6.70;99.90;;;;;;5103213;28;20044;-66
2021/10/08 07:38:49;;;;;;;186.38;50.25;;;6.80;99.90;;;;;;5106281;28;20230;-66
2021/10/08 07:41:15;;;;;;;216.30;55.95;;;6.90;99.90;;;;;;5092744;28;20040;-66
2021/10/08 07:43:41;;;;;;;186.75;49.28;;;6.80;99.90;;;;;;5106155;28;20102;-68
2021/10/08 07:46:08;;;;;;;287.83;61.60;;;6.90;99.90;;;;;;5098691;28;20495;-66
2021/10/08 07:48:34;;;;;;;208.52;52.80;;;6.90;99.90;;;;;;5106085;28;20040;-67
2021/10/08 07:51:01;;;;;;;131.68;47.47;;;6.90;99.90;;;;;;5098269;28;20048;-67
2021/10/08 07:53:26;;;;;;;163.63;50.05;;;7.00;99.90;;;;;;5105177;28;20099;-65
2021/10/08 07:55:53;;;;;;;153.68;49.40;;;7.10;99.90;;;;;;5097435;28;20040;-67
2021/10/08 07:58:21;;;;;;;130.73;45.53;;;7.20;99.90;;;;;;5105443;28;20040;-65
2021/10/08 08:00:46;;;;;;;;;;;7.40;99.90;;;;;;5099463;28;20123;-65
2021/10/08 08:03:12;;;;;;;93.32;40.30;;;7.60;99.90;;;;;;5103859;28;20338;-67
2021/10/08 08:05:38;;;;;;;85.60;39.10;;;7.80;99.90;;;;;;5101319;28;20092;-67
2021/10/08 08:08:04;;;;;;;81.75;36.92;;;7.90;99.90;;;;;;5101312;28;20044;-67
2021/10/08 08:10:29;;;;;;;87.72;37.58;;;8.00;99.90;;;;;;5102773;28;20125;-67
2021/10/08 08:12:55;;;;;;;73.63;36.30;;;8.10;99.90;;;;;;5099515;28;20040;-67
2021/10/08 08:15:21;;;;;;;79.70;35.92;;;8.30;99.90;;;;;;5104918;28;20123;-65
2021/10/08 08:17:47;;;;;;;65.35;33.38;;;8.50;99.90;;;;;;5087936;28;20040;-65
2021/10/08 08:20:13;;;;;;;63.13;31.95;;;8.70;99.90;;;;;;5105243;28;20063;-66
2021/10/08 08:22:39;;;;;;;59.47;31.15;;;8.80;99.90;;;;;;5097146;28;20059;-67
2021/10/08 08:25:05;;;;;;;54.80;29.42;;;9.00;99.90;;;;;;5101607;28;20039;-66
2021/10/08 08:27:31;;;;;;;48.33;28.23;;;9.10;99.90;;;;;;5095011;28;20058;-65
2021/10/08 08:29:57;;;;;;;54.45;29.45;;;9.20;99.90;;;;;;5104082;28;20039;-67
2021/10/08 08:32:24;;;;;;;52.88;29.83;;;9.40;99.90;;;;;;5096661;28;20435;-67
2021/10/08 08:34:50;;;;;;;47.75;29.45;;;9.60;99.90;;;;;;5103690;28;20040;-67
2021/10/08 08:37:15;;;;;;;49.53;28.77;;;9.70;99.90;;;;;;5095593;28;20043;-68
2021/10/08 08:39:42;;;;;;;48.05;28.35;;;9.90;99.90;;;;;;5098454;28;20048;-65
2021/10/08 08:42:09;;;;;;;45.90;28.17;;;9.90;99.90;;;;;;5092815;28;20078;-67
2021/10/08 08:44:35;;;;;;;41.40;25.77;;;10.00;99.90;;;;;;5097885;28;20076;-67
2021/10/08 08:47:01;;;;;;;46.45;25.10;;;10.20;99.90;;;;;;5104886;28;20051;-67
2021/10/08 08:49:27;;;;;;;37.38;23.70;;;10.40;99.90;;;;;;5098683;28;20040;-65
2021/10/08 08:51:53;;;;;;;30.40;21.40;;;10.50;99.90;;;;;;5095796;28;20105;-67
2021/10/08 08:54:19;;;;;;;40.95;23.98;;;10.60;99.90;;;;;;5093596;28;20037;-67
2021/10/08 08:56:45;;;;;;;30.92;21.98;;;10.80;99.90;;;;;;5097617;28;20040;-67
2021/10/08 08:59:13;;;;;;;33.45;22.20;;;10.90;99.90;;;;;;5091993;28;20040;-68
2021/10/08 09:02:02;;;;;;;33.97;22.08;;;11.10;99.90;;;;;;5091482;28;20047;-67
2021/10/08 09:04:32;;;;;;;34.55;22.10;;;11.30;99.90;;;;;;5097238;28;20420;-66
2021/10/08 09:06:59;;;;;;;32.45;21.95;;;11.40;99.90;;;;;;5104719;28;20040;-66
2021/10/08 09:09:26;;;;;;;35.25;20.58;;;11.60;99.90;;;;;;5097491;28;20048;-66
2021/10/08 09:11:55;;;;;;;31.77;20.40;;;11.80;99.90;;;;;;5091599;28;20480;-66
2021/10/08 09:14:27;;;;;;;28.95;19.55;;;12.00;99.90;;;;;;5098624;28;20051;-66
2021/10/08 09:17:18;;;;;;;29.90;19.52;;;12.10;99.90;;;;;;5103312;28;20057;-66
2021/10/08 09:19:46;;;;;;;30.67;19.52;;;12.30;99.90;;;;;;5097058;28;20055;-66
2021/10/08 09:22:13;;;;;;;35.03;20.48;;;12.30;99.90;;;;;;5103884;28;20040;-67
2021/10/08 09:24:39;;;;;;;27.40;19.58;;;12.40;99.90;;;;;;5097419;28;20049;-66
2021/10/08 09:27:23;;;;;;;28.27;19.40;;;12.60;99.90;;;;;;5102985;28;20063;-66
2021/10/08 09:29:55;;;;;;;28.35;18.88;;;12.50;99.90;;;;;;5096256;28;20080;-66
2021/10/08 09:32:23;;;;;;;30.60;20.73;;;12.50;99.90;;;;;;5091518;28;20082;-66
2021/10/08 09:35:03;;;;;;;28.15;19.98;;;12.60;99.90;;;;;;5097275;28;20037;-66
2021/10/08 09:37:30;;;;;;;29.15;19.55;;;12.70;99.90;;;;;;5091720;28;20040;-66
2021/10/08 09:39:55;;;;;;;31.08;19.10;;;12.80;99.90;;;;;;5096406;28;20052;-66
2021/10/08 09:42:22;;;;;;;27.05;18.88;;;12.90;99.90;;;;;;5094143;28;20044;-66
2021/10/08 09:44:53;;;;;;;26.35;18.45;;;13.00;99.90;;;;;;5098181;28;20063;-66
2021/10/08 09:47:24;;;;;;;26.77;18.23;;;13.20;99.90;;;;;;5092486;28;20045;-66
2021/10/08 09:49:52;;;;;;;28.02;20.38;;;13.30;99.90;;;;;;5085025;28;20132;-66
2021/10/08 09:52:31;;;;;;;25.08;18.08;;;13.40;99.90;;;;;;5092292;28;20424;-66
2021/10/08 09:55:12;;;;;;;23.67;17.60;;;13.60;99.90;;;;;;5084859;28;20045;-66
2021/10/08 09:57:56;;;;;;;25.63;18.63;;;13.70;99.90;;;;;;5092909;28;20040;-65
2021/10/08 10:00:57;;;;;;;27.63;17.95;;;13.80;99.90;;;;;;5095332;28;20048;-66
2021/10/08 10:03:23;;;;;;;27.98;18.38;;;13.90;99.90;;;;;;5090663;28;20044;-66
2021/10/08 10:05:49;;;;;;;25.00;18.63;;;14.10;99.90;;;;;;5092285;28;20055;-66
2021/10/08 10:08:15;;;;;;;28.20;18.95;;;14.10;99.90;;;;;;5095709;28;20070;-68
2021/10/08 10:10:42;;;;;;;32.78;20.25;;;14.20;99.90;;;;;;5093628;28;20041;-66
2021/10/08 10:13:10;;;;;;;26.10;18.42;;;14.20;99.90;;;;;;5093417;28;20040;-65
2021/10/08 10:15:39;;;;;;;26.08;19.02;;;14.20;99.90;;;;;;5095278;28;20048;-66
2021/10/08 10:18:10;;;;;;;28.08;20.15;;;14.20;99.90;;;;;;5092104;28;20062;-66
2021/10/08 10:20:38;;;;;;;28.45;20.52;;;14.40;99.90;;;;;;5096151;28;20108;-66
2021/10/08 10:23:05;;;;;;;27.55;19.65;;;14.40;99.90;;;;;;5090780;28;20055;-66
2021/10/08 10:25:32;;;;;;;25.60;18.80;;;14.50;99.90;;;;;;5102836;28;20044;-66
2021/10/08 10:27:58;;;;;;;29.47;20.47;;;14.50;99.90;;;;;;5100137;28;20048;-66
2021/10/08 10:30:24;;;;;;;30.25;20.48;;;14.70;99.90;;;;;;5106215;28;20036;-66
2021/10/08 10:32:50;;;;;;;25.52;20.00;;;14.50;99.90;;;;;;5104011;28;20045;-68
2021/10/08 10:35:47;;;;;;;27.35;18.77;;;14.60;99.90;;;;;;5104243;28;20041;-66
2021/10/08 10:38:33;;;;;;;28.15;19.67;;;14.70;99.90;;;;;;5100592;28;20044;-66
2021/10/08 10:41:08;;;;;;;26.38;17.90;;;14.80;99.90;;;;;;5100422;28;20066;-66
2021/10/08 10:43:39;;;;;;;28.65;19.30;;;14.90;99.90;;;;;;5099006;28;20070;-66
2021/10/08 10:51:58;;;;;;;27.75;18.10;;;15.10;99.90;;;;;;5064302;28;20416;-66
2021/10/08 10:54:42;;;;;;;27.27;17.20;;;15.30;99.90;;;;;;5074553;28;20660;-66
2021/10/08 10:57:20;;;;;;;22.83;15.43;;;15.50;99.90;;;;;;5081720;28;20040;-66
2021/10/08 10:59:47;;;;;;;25.20;16.38;;;15.90;99.90;;;;;;5074192;28;20053;-66
2021/10/08 11:02:15;;;;;;;21.25;15.25;;;15.90;99.90;;;;;;5081393;28;20044;-65
2021/10/08 11:04:42;;;;;;;20.67;15.57;;;15.90;99.90;;;;;;5074506;28;20137;-66
2021/10/08 11:07:11;;;;;;;20.20;15.45;;;16.10;99.90;;;;;;5081674;28;20040;-65
2021/10/08 11:09:38;;;;;;;18.35;14.60;;;15.80;99.90;;;;;;5073716;28;20142;-65
2021/10/08 11:12:36;;;;;;;20.20;13.98;;;16.00;99.90;;;;;;5081014;28;20071;-65
2021/10/08 11:15:20;;;;;;;20.17;14.52;;;16.10;99.90;;;;;;5080734;28;20052;-65
2021/10/08 11:17:54;;;;;;;21.23;14.40;;;16.20;99.90;;;;;;5081226;28;20048;-66
2021/10/08 11:20:25;;;;;;;20.95;14.23;;;16.30;99.90;;;;;;5073669;28;20044;-65
2021/10/08 11:23:01;;;;;;;20.25;14.15;;;16.70;99.90;;;;;;5080524;28;20048;-65
2021/10/08 11:25:29;;;;;;;15.20;12.70;;;16.70;99.90;;;;;;5073290;28;20083;-66
2021/10/08 11:27:54;;;;;;;;;;;16.80;99.90;;;;;;5081071;28;20071;-66
2021/10/08 11:30:21;;;;;;;14.55;11.98;;;;;;;;;;5072916;28;19920;-66
2021/10/08 11:32:50;;;;;;;15.70;11.43;;;17.80;99.90;;;;;;5080223;28;20515;-66
2021/10/08 11:35:19;;;;;;;13.13;10.65;;;18.00;99.90;;;;;;5072908;28;20044;-66
2021/10/08 11:37:48;;;;;;;10.90;9.75;;;18.10;99.90;;;;;;5079163;28;20049;-66
2021/10/08 11:40:46;;;;;;;11.65;8.98;;;19.00;99.90;;;;;;5082018;28;20092;-66
2021/10/08 11:43:30;;;;;;;11.43;9.03;;;19.10;99.90;;;;;;4995534;28;20462;-66
2021/10/08 11:46:03;;;;;;;10.77;8.70;;;19.70;99.90;;;;;;5003089;28;20117;-66
2021/10/08 11:48:39;;;;;;;9.80;8.10;;;19.30;99.90;;;;;;5004655;28;20046;-66
2021/10/08 11:51:07;;;;;;;8.75;7.85;;;18.80;99.90;;;;;;5003979;28;20070;-66
2021/10/08 11:53:47;;;;;;;8.88;7.63;;;18.70;99.90;;;;;;5004349;28;20046;-66
2021/10/08 11:56:27;;;;;;;8.35;7.38;;;18.50;99.90;;;;;;5003791;28;20142;-66
2021/10/08 11:58:59;;;;;;;8.50;7.25;;;18.50;99.90;;;;;;5014069;28;20050;-65
2021/10/08 12:01:30;;;;;;;9.48;7.50;;;18.70;99.90;;;;;;5006883;28;20534;-65
2021/10/08 12:03:56;;;;;;;7.90;7.13;;;18.90;99.90;;;;;;5005177;28;20054;-65
2021/10/08 12:06:31;;;;;;;7.45;6.75;;;19.30;99.90;;;;;;4990449;28;20058;-65
2021/10/08 12:08:58;;;;;;;8.20;6.78;;;19.90;99.90;;;;;;5014205;28;20062;-65
2021/10/08 12:11:28;;;;;;;8.43;7.22;;;20.30;99.90;;;;;;5006778;28;20085;-65
2021/10/08 12:13:57;;;;;;;8.50;7.30;;;20.00;99.90;;;;;;4993235;28;20109;-66
2021/10/08 12:16:36;;;;;;;7.07;6.38;;;20.10;99.90;;;;;;5008712;28;20090;-65
2021/10/08 12:19:02;;;;;;;10.20;7.10;;;20.70;99.90;;;;;;5041802;28;20119;-65
2021/10/08 12:21:32;;;;;;;8.10;7.30;;;20.30;99.90;;;;;;5080849;28;20072;-65
2021/10/08 12:23:58;;;;;;;7.85;6.90;;;20.00;99.90;;;;;;5081505;28;20051;-65
2021/10/08 12:26:24;;;;;;;7.22;6.00;;;19.90;99.90;;;;;;5079382;28;20096;-65
2021/10/08 12:28:51;;;;;;;6.43;5.57;;;20.30;99.90;;;;;;5084953;28;20119;-65
2021/10/08 12:31:18;;;;;;;6.47;4.32;;;20.60;99.90;;;;;;5075580;28;20088;-65
2021/10/08 12:33:46;;;;;;;5.03;4.53;;;20.60;97.30;;;;;;5083801;28;20045;-65
2021/10/08 12:36:22;;;;;;;6.65;4.25;;;20.50;97.50;;;;;;5063589;28;20056;-66
2021/10/08 12:39:07;;;;;;;5.90;4.82;;;20.50;93.10;;;;;;5082339;28;20049;-65